sensor_id;sensor_type;location;lat;lon;timestamp;pressure;altitude;pressure_sealevel;temperature;humidity
4392;BME280;2210;51.938;8.488;2023-05-19T00:02:12;101569.44;;;9.98;80.11
4392;BME280;2210;51.938;8.488;2023-05-19T00:06:12;101566.94;;;10.03;78.44
4392;BME280;2210;51.938;8.488;2023-05-19T00:10:13;101566.94;;;10.03;80.41
4392;BME280;2210;51.938;8.488;2023-05-19T00:14:14;101564.16;;;10.03;79.88
4392;BME280;2210;51.938;8.488;2023-05-19T00:18:14;101564.41;;;10.08;78.29
4392;BME280;2210;51.938;8.488;2023-05-19T00:22:15;101560.78;;;10.01;78.94
4392;BME280;2210;51.938;8.488;2023-05-19T00:26:16;101559.91;;;9.94;80.36
4392;BME280;2210;51.938;8.488;2023-05-19T00:30:16;101560.53;;;9.83;80.42
4392;BME280;2210;51.938;8.488;2023-05-19T00:34:17;101555.66;;;9.78;80.96
4392;BME280;2210;51.938;8.488;2023-05-19T00:38:17;101558.38;;;9.71;80.45
4392;BME280;2210;51.938;8.488;2023-05-19T00:42:20;101545.63;;;9.64;80.50
4392;BME280;2210;51.938;8.488;2023-05-19T00:46:20;101542.44;;;9.60;82.34
4392;BME280;2210;51.938;8.488;2023-05-19T00:50:22;101548.84;;;9.67;81.72
4392;BME280;2210;51.938;8.488;2023-05-19T00:54:23;101543.28;;;9.60;82.83
4392;BME280;2210;51.938;8.488;2023-05-19T00:58:30;101542.59;;;9.52;82.73
4392;BME280;2210;51.938;8.488;2023-05-19T01:02:31;101551.47;;;9.40;83.84
4392;BME280;2210;51.938;8.488;2023-05-19T01:06:32;101545.88;;;9.27;84.43
4392;BME280;2210;51.938;8.488;2023-05-19T01:10:36;101547.13;;;9.24;84.26
4392;BME280;2210;51.938;8.488;2023-05-19T01:14:40;101551.31;;;9.14;85.74
4392;BME280;2210;51.938;8.488;2023-05-19T01:18:46;101547.47;;;9.08;86.11
4392;BME280;2210;51.938;8.488;2023-05-19T01:27:39;101544.69;;;9.01;86.60
4392;BME280;2210;51.938;8.488;2023-05-19T01:31:42;101542.72;;;8.95;86.76
4392;BME280;2210;51.938;8.488;2023-05-19T01:35:50;101549.09;;;8.96;86.30
4392;BME280;2210;51.938;8.488;2023-05-19T01:39:54;101539.75;;;8.97;86.87
4392;BME280;2210;51.938;8.488;2023-05-19T01:43:55;101550.09;;;8.88;87.61
4392;BME280;2210;51.938;8.488;2023-05-19T01:48:00;101547.75;;;8.85;86.83
4392;BME280;2210;51.938;8.488;2023-05-19T01:52:03;101540.28;;;8.78;88.24
4392;BME280;2210;51.938;8.488;2023-05-19T01:56:07;101542.34;;;8.70;87.83
4392;BME280;2210;51.938;8.488;2023-05-19T02:04:48;101541.63;;;8.61;89.26
4392;BME280;2210;51.938;8.488;2023-05-19T02:09:07;101541.16;;;8.51;90.26
4392;BME280;2210;51.938;8.488;2023-05-19T02:22:24;101539.03;;;8.53;92.10
4392;BME280;2210;51.938;8.488;2023-05-19T02:26:31;101531.31;;;8.63;90.50
4392;BME280;2210;51.938;8.488;2023-05-19T02:30:31;101526.22;;;8.60;89.85
4392;BME280;2210;51.938;8.488;2023-05-19T02:34:31;101535.88;;;8.56;90.16
4392;BME280;2210;51.938;8.488;2023-05-19T02:38:32;101533.78;;;8.58;90.25
4392;BME280;2210;51.938;8.488;2023-05-19T02:42:35;101531.66;;;8.53;89.90
4392;BME280;2210;51.938;8.488;2023-05-19T02:46:38;101534.78;;;8.50;91.15
4392;BME280;2210;51.938;8.488;2023-05-19T02:50:44;101537.72;;;8.49;91.21
4392;BME280;2210;51.938;8.488;2023-05-19T02:54:47;101531.88;;;8.58;92.22
4392;BME280;2210;51.938;8.488;2023-05-19T02:58:48;101525.59;;;8.65;91.07
4392;BME280;2210;51.938;8.488;2023-05-19T03:02:48;101522.38;;;8.61;90.85
4392;BME280;2210;51.938;8.488;2023-05-19T03:06:48;101522.19;;;8.63;90.41
4392;BME280;2210;51.938;8.488;2023-05-19T03:10:49;101518.41;;;8.64;89.63
4392;BME280;2210;51.938;8.488;2023-05-19T03:14:49;101523.69;;;8.65;89.72
4392;BME280;2210;51.938;8.488;2023-05-19T03:18:49;101525.41;;;8.66;90.07
4392;BME280;2210;51.938;8.488;2023-05-19T03:22:50;101515.44;;;8.65;90.57
4392;BME280;2210;51.938;8.488;2023-05-19T03:26:50;101516.38;;;8.72;88.64
4392;BME280;2210;51.938;8.488;2023-05-19T03:30:50;101517.19;;;8.73;88.19
4392;BME280;2210;51.938;8.488;2023-05-19T03:34:51;101517.19;;;8.73;86.06
4392;BME280;2210;51.938;8.488;2023-05-19T03:38:51;101522.28;;;8.76;84.45
4392;BME280;2210;51.938;8.488;2023-05-19T03:42:51;101508.41;;;8.91;85.07
4392;BME280;2210;51.938;8.488;2023-05-19T03:46:56;101519.84;;;8.88;83.49
4392;BME280;2210;51.938;8.488;2023-05-19T03:50:56;101509.50;;;8.97;81.88
4392;BME280;2210;51.938;8.488;2023-05-19T03:54:57;101514.84;;;8.98;81.95
4392;BME280;2210;51.938;8.488;2023-05-19T03:59:04;101514.59;;;8.93;81.83
4392;BME280;2210;51.938;8.488;2023-05-19T04:03:06;101526.72;;;9.05;82.27
4392;BME280;2210;51.938;8.488;2023-05-19T04:07:07;101520.88;;;9.22;81.75
4392;BME280;2210;51.938;8.488;2023-05-19T04:11:07;101524.31;;;9.31;81.56
4392;BME280;2210;51.938;8.488;2023-05-19T04:15:23;101534.06;;;9.40;82.21
4392;BME280;2210;51.938;8.488;2023-05-19T04:19:23;101531.16;;;9.41;80.67
4392;BME280;2210;51.938;8.488;2023-05-19T04:23:23;101534.78;;;9.55;81.76
4392;BME280;2210;51.938;8.488;2023-05-19T04:27:26;101529.34;;;9.69;80.93
4392;BME280;2210;51.938;8.488;2023-05-19T04:31:32;101533.41;;;9.79;80.67
4392;BME280;2210;51.938;8.488;2023-05-19T04:35:33;101533.44;;;9.93;79.82
4392;BME280;2210;51.938;8.488;2023-05-19T04:39:40;101538.13;;;10.12;80.37
4392;BME280;2210;51.938;8.488;2023-05-19T04:43:47;101540.25;;;10.24;78.61
4392;BME280;2210;51.938;8.488;2023-05-19T04:47:47;101542.38;;;10.28;77.75
4392;BME280;2210;51.938;8.488;2023-05-19T04:51:47;101537.78;;;10.56;77.17
4392;BME280;2210;51.938;8.488;2023-05-19T04:55:55;101530.53;;;10.61;76.00
4392;BME280;2210;51.938;8.488;2023-05-19T04:59:55;101521.59;;;10.79;75.13
4392;BME280;2210;51.938;8.488;2023-05-19T05:04:11;101526.69;;;10.96;74.73
4392;BME280;2210;51.938;8.488;2023-05-19T05:08:11;101524.09;;;11.14;74.16
4392;BME280;2210;51.938;8.488;2023-05-19T05:12:12;101519.34;;;11.28;74.63
4392;BME280;2210;51.938;8.488;2023-05-19T05:16:16;101523.31;;;11.53;73.46
4392;BME280;2210;51.938;8.488;2023-05-19T05:20:17;101520.09;;;11.62;71.46
4392;BME280;2210;51.938;8.488;2023-05-19T05:24:18;101511.88;;;11.88;70.50
4392;BME280;2210;51.938;8.488;2023-05-19T05:28:19;101516.53;;;11.94;70.27
4392;BME280;2210;51.938;8.488;2023-05-19T05:32:22;101519.34;;;12.19;70.21
4392;BME280;2210;51.938;8.488;2023-05-19T05:36:22;101515.84;;;12.56;69.01
4392;BME280;2210;51.938;8.488;2023-05-19T05:40:23;101511.44;;;12.73;67.96
4392;BME280;2210;51.938;8.488;2023-05-19T05:44:23;101511.94;;;13.07;68.85
4392;BME280;2210;51.938;8.488;2023-05-19T05:48:23;101507.66;;;12.93;66.09
4392;BME280;2210;51.938;8.488;2023-05-19T05:52:28;101514.28;;;13.10;66.40
4392;BME280;2210;51.938;8.488;2023-05-19T05:56:29;101523.16;;;13.38;64.36
4392;BME280;2210;51.938;8.488;2023-05-19T06:00:29;101517.59;;;13.38;64.96
4392;BME280;2210;51.938;8.488;2023-05-19T06:04:29;101523.66;;;13.65;62.83
4392;BME280;2210;51.938;8.488;2023-05-19T06:08:33;101509.31;;;13.68;63.40
4392;BME280;2210;51.938;8.488;2023-05-19T06:12:33;101517.84;;;13.97;62.37
4392;BME280;2210;51.938;8.488;2023-05-19T06:16:40;101522.22;;;14.05;62.75
4392;BME280;2210;51.938;8.488;2023-05-19T06:20:46;101520.19;;;14.00;61.29
4392;BME280;2210;51.938;8.488;2023-05-19T06:24:46;101518.00;;;14.02;60.39
4392;BME280;2210;51.938;8.488;2023-05-19T06:28:47;101509.16;;;14.36;60.76
4392;BME280;2210;51.938;8.488;2023-05-19T06:32:50;101516.91;;;14.45;60.05
4392;BME280;2210;51.938;8.488;2023-05-19T06:37:00;101514.72;;;14.36;58.99
4392;BME280;2210;51.938;8.488;2023-05-19T06:41:01;101512.56;;;14.61;58.55
4392;BME280;2210;51.938;8.488;2023-05-19T06:45:01;101508.97;;;14.73;58.50
4392;BME280;2210;51.938;8.488;2023-05-19T06:49:01;101505.97;;;14.98;58.20
4392;BME280;2210;51.938;8.488;2023-05-19T06:53:05;101500.03;;;15.18;57.82
4392;BME280;2210;51.938;8.488;2023-05-19T06:57:05;101493.59;;;15.17;57.93
4392;BME280;2210;51.938;8.488;2023-05-19T07:01:05;101496.75;;;15.33;57.63
4392;BME280;2210;51.938;8.488;2023-05-19T07:05:06;101497.66;;;15.50;56.83
4392;BME280;2210;51.938;8.488;2023-05-19T07:09:07;101490.88;;;15.87;58.04
4392;BME280;2210;51.938;8.488;2023-05-19T07:13:07;101490.22;;;15.97;58.26
4392;BME280;2210;51.938;8.488;2023-05-19T07:17:08;101478.94;;;16.21;55.76
4392;BME280;2210;51.938;8.488;2023-05-19T07:21:11;101482.81;;;16.19;54.90
4392;BME280;2210;51.938;8.488;2023-05-19T07:25:11;101485.69;;;16.25;55.35
4392;BME280;2210;51.938;8.488;2023-05-19T07:29:14;101487.34;;;16.09;54.30
4392;BME280;2210;51.938;8.488;2023-05-19T07:33:15;101483.09;;;16.35;52.72
4392;BME280;2210;51.938;8.488;2023-05-19T07:37:18;101478.47;;;16.58;54.14
4392;BME280;2210;51.938;8.488;2023-05-19T07:41:18;101475.94;;;16.39;53.78
4392;BME280;2210;51.938;8.488;2023-05-19T07:45:22;101474.22;;;16.38;52.08
4392;BME280;2210;51.938;8.488;2023-05-19T07:49:22;101477.44;;;16.30;50.28
4392;BME280;2210;51.938;8.488;2023-05-19T07:53:22;101476.31;;;16.65;51.33
4392;BME280;2210;51.938;8.488;2023-05-19T07:57:22;101477.88;;;16.39;47.99
4392;BME280;2210;51.938;8.488;2023-05-19T08:01:23;101470.84;;;16.53;49.46
4392;BME280;2210;51.938;8.488;2023-05-19T08:05:33;101467.31;;;16.58;51.02
4392;BME280;2210;51.938;8.488;2023-05-19T08:09:33;101468.63;;;16.89;49.79
4392;BME280;2210;51.938;8.488;2023-05-19T08:13:34;101473.06;;;17.07;48.93
4392;BME280;2210;51.938;8.488;2023-05-19T08:17:34;101459.97;;;17.08;49.09
4392;BME280;2210;51.938;8.488;2023-05-19T08:21:38;101463.25;;;17.27;49.68
4392;BME280;2210;51.938;8.488;2023-05-19T08:25:38;101466.06;;;17.49;51.06
4392;BME280;2210;51.938;8.488;2023-05-19T08:29:39;101457.81;;;17.37;48.23
4392;BME280;2210;51.938;8.488;2023-05-19T08:33:46;101457.09;;;17.47;51.49
4392;BME280;2210;51.938;8.488;2023-05-19T08:37:52;101446.47;;;17.44;49.77
4392;BME280;2210;51.938;8.488;2023-05-19T08:41:59;101440.69;;;17.50;49.26
4392;BME280;2210;51.938;8.488;2023-05-19T08:45:59;101434.97;;;17.35;45.48
4392;BME280;2210;51.938;8.488;2023-05-19T08:50:04;101437.84;;;17.45;47.88
4392;BME280;2210;51.938;8.488;2023-05-19T08:54:16;101442.78;;;17.38;49.94
4392;BME280;2210;51.938;8.488;2023-05-19T08:58:20;101440.22;;;17.59;47.58
4392;BME280;2210;51.938;8.488;2023-05-19T09:02:24;101425.53;;;17.41;44.78
4392;BME280;2210;51.938;8.488;2023-05-19T09:06:31;101427.84;;;17.77;47.39
4392;BME280;2210;51.938;8.488;2023-05-19T09:10:31;101421.56;;;17.86;49.91
4392;BME280;2210;51.938;8.488;2023-05-19T09:14:31;101427.63;;;17.83;47.86
4392;BME280;2210;51.938;8.488;2023-05-19T09:18:55;101418.88;;;17.69;43.63
4392;BME280;2210;51.938;8.488;2023-05-19T09:22:56;101426.69;;;17.73;43.71
4392;BME280;2210;51.938;8.488;2023-05-19T09:27:01;101422.94;;;17.57;45.10
4392;BME280;2210;51.938;8.488;2023-05-19T09:35:03;101408.38;;;18.09;46.20
4392;BME280;2210;51.938;8.488;2023-05-19T09:39:11;101408.72;;;17.85;46.19
4392;BME280;2210;51.938;8.488;2023-05-19T09:43:15;101406.09;;;17.46;45.50
4392;BME280;2210;51.938;8.488;2023-05-19T09:47:15;101404.03;;;17.14;45.81
4392;BME280;2210;51.938;8.488;2023-05-19T09:51:16;101399.06;;;17.98;48.68
4392;BME280;2210;51.938;8.488;2023-05-19T09:55:20;101401.50;;;18.22;45.30
4392;BME280;2210;51.938;8.488;2023-05-19T09:59:23;101398.50;;;17.69;46.07
4392;BME280;2210;51.938;8.488;2023-05-19T10:03:24;101384.47;;;17.59;46.41
4392;BME280;2210;51.938;8.488;2023-05-19T10:07:24;101374.13;;;17.86;45.09
4392;BME280;2210;51.938;8.488;2023-05-19T10:11:26;101378.63;;;17.60;45.13
4392;BME280;2210;51.938;8.488;2023-05-19T10:15:27;101373.91;;;17.93;46.88
4392;BME280;2210;51.938;8.488;2023-05-19T10:19:27;101378.16;;;18.01;45.50
4392;BME280;2210;51.938;8.488;2023-05-19T10:23:28;101368.00;;;17.57;44.90
4392;BME280;2210;51.938;8.488;2023-05-19T10:27:29;101370.13;;;17.77;43.62
4392;BME280;2210;51.938;8.488;2023-05-19T10:31:31;101364.19;;;17.68;43.46
4392;BME280;2210;51.938;8.488;2023-05-19T10:36:07;101348.16;;;18.18;44.55
4392;BME280;2210;51.938;8.488;2023-05-19T10:40:26;101355.38;;;18.14;42.95
4392;BME280;2210;51.938;8.488;2023-05-19T10:48:43;101339.94;;;18.44;41.94
4392;BME280;2210;51.938;8.488;2023-05-19T10:52:51;101352.91;;;18.66;44.05
4392;BME280;2210;51.938;8.488;2023-05-19T10:56:55;101353.94;;;18.49;44.27
4392;BME280;2210;51.938;8.488;2023-05-19T11:01:06;101356.19;;;18.52;42.38
4392;BME280;2210;51.938;8.488;2023-05-19T11:05:14;101351.22;;;18.65;41.44
4392;BME280;2210;51.938;8.488;2023-05-19T11:09:18;101349.78;;;18.52;42.71
4392;BME280;2210;51.938;8.488;2023-05-19T11:13:25;101348.47;;;18.75;43.68
4392;BME280;2210;51.938;8.488;2023-05-19T11:17:27;101356.53;;;18.18;43.97
4392;BME280;2210;51.938;8.488;2023-05-19T11:21:47;101339.41;;;19.00;44.22
4392;BME280;2210;51.938;8.488;2023-05-19T11:26:00;101340.59;;;18.62;42.29
4392;BME280;2210;51.938;8.488;2023-05-19T11:30:07;101338.25;;;18.91;41.62
4392;BME280;2210;51.938;8.488;2023-05-19T11:34:10;101337.97;;;18.93;40.68
4392;BME280;2210;51.938;8.488;2023-05-19T11:38:13;101327.91;;;18.97;41.24
4392;BME280;2210;51.938;8.488;2023-05-19T11:42:13;101326.16;;;18.80;41.52
4392;BME280;2210;51.938;8.488;2023-05-19T11:46:20;101320.84;;;18.79;39.23
4392;BME280;2210;51.938;8.488;2023-05-19T11:50:24;101318.47;;;19.13;40.42
4392;BME280;2210;51.938;8.488;2023-05-19T11:54:32;101318.31;;;18.77;40.90
4392;BME280;2210;51.938;8.488;2023-05-19T11:58:32;101305.47;;;18.81;38.94
4392;BME280;2210;51.938;8.488;2023-05-19T12:02:42;101318.41;;;18.93;39.80
4392;BME280;2210;51.938;8.488;2023-05-19T12:06:42;101320.06;;;18.89;38.93
4392;BME280;2210;51.938;8.488;2023-05-19T12:10:42;101305.00;;;19.00;40.85
4392;BME280;2210;51.938;8.488;2023-05-19T12:14:45;101311.13;;;18.92;37.92
4392;BME280;2210;51.938;8.488;2023-05-19T12:18:45;101309.81;;;19.20;39.04
4392;BME280;2210;51.938;8.488;2023-05-19T12:22:53;101305.06;;;19.15;39.34
4392;BME280;2210;51.938;8.488;2023-05-19T12:27:04;101298.88;;;19.08;39.32
4392;BME280;2210;51.938;8.488;2023-05-19T12:31:05;101295.56;;;19.42;41.45
4392;BME280;2210;51.938;8.488;2023-05-19T12:35:05;101305.34;;;19.24;40.44
4392;BME280;2210;51.938;8.488;2023-05-19T12:39:06;101295.28;;;19.44;43.52
4392;BME280;2210;51.938;8.488;2023-05-19T12:43:22;101296.69;;;19.46;42.11
4392;BME280;2210;51.938;8.488;2023-05-19T12:47:29;101289.72;;;19.33;40.52
4392;BME280;2210;51.938;8.488;2023-05-19T12:51:30;101288.31;;;19.46;42.29
4392;BME280;2210;51.938;8.488;2023-05-19T12:55:37;101296.69;;;19.51;43.22
4392;BME280;2210;51.938;8.488;2023-05-19T12:59:38;101290.50;;;19.08;41.97
4392;BME280;2210;51.938;8.488;2023-05-19T13:03:39;101291.38;;;19.29;43.00
4392;BME280;2210;51.938;8.488;2023-05-19T13:07:52;101278.78;;;19.37;41.78
4392;BME280;2210;51.938;8.488;2023-05-19T13:11:52;101273.78;;;19.39;39.75
4392;BME280;2210;51.938;8.488;2023-05-19T13:15:53;101274.63;;;19.55;40.00
4392;BME280;2210;51.938;8.488;2023-05-19T13:19:54;101275.94;;;19.01;40.67
4392;BME280;2210;51.938;8.488;2023-05-19T13:23:54;101266.78;;;19.36;43.74
4392;BME280;2210;51.938;8.488;2023-05-19T13:28:02;101274.03;;;19.27;41.99
4392;BME280;2210;51.938;8.488;2023-05-19T13:32:05;101278.34;;;18.71;41.43
4392;BME280;2210;51.938;8.488;2023-05-19T13:36:06;101267.81;;;18.89;43.12
4392;BME280;2210;51.938;8.488;2023-05-19T13:40:15;101264.47;;;18.92;41.67
4392;BME280;2210;51.938;8.488;2023-05-19T13:44:19;101266.28;;;18.61;42.77
4392;BME280;2210;51.938;8.488;2023-05-19T13:48:19;101274.28;;;18.31;43.64
4392;BME280;2210;51.938;8.488;2023-05-19T13:52:20;101258.78;;;18.61;42.57
4392;BME280;2210;51.938;8.488;2023-05-19T13:56:20;101258.63;;;19.04;42.16
4392;BME280;2210;51.938;8.488;2023-05-19T14:00:21;101244.97;;;19.13;40.31
4392;BME280;2210;51.938;8.488;2023-05-19T14:04:21;101248.31;;;19.20;40.48
4392;BME280;2210;51.938;8.488;2023-05-19T14:08:35;101244.13;;;19.48;41.45
4392;BME280;2210;51.938;8.488;2023-05-19T14:12:35;101240.75;;;19.05;41.74
4392;BME280;2210;51.938;8.488;2023-05-19T14:16:39;101244.25;;;18.64;43.05
4392;BME280;2210;51.938;8.488;2023-05-19T14:20:43;101247.78;;;18.44;45.36
4392;BME280;2210;51.938;8.488;2023-05-19T14:24:43;101233.94;;;18.70;43.50
4392;BME280;2210;51.938;8.488;2023-05-19T14:28:44;101235.19;;;19.15;42.23
4392;BME280;2210;51.938;8.488;2023-05-19T14:32:44;101237.09;;;18.99;41.39
4392;BME280;2210;51.938;8.488;2023-05-19T14:36:44;101244.66;;;19.04;42.02
4392;BME280;2210;51.938;8.488;2023-05-19T14:40:45;101250.25;;;19.14;42.28
4392;BME280;2210;51.938;8.488;2023-05-19T14:44:50;101248.31;;;19.20;42.15
4392;BME280;2210;51.938;8.488;2023-05-19T14:48:53;101243.84;;;19.24;41.90
4392;BME280;2210;51.938;8.488;2023-05-19T14:52:53;101245.66;;;18.67;42.08
4392;BME280;2210;51.938;8.488;2023-05-19T14:56:53;101256.16;;;18.39;43.45
4392;BME280;2210;51.938;8.488;2023-05-19T15:00:56;101250.69;;;18.70;44.12
4392;BME280;2210;51.938;8.488;2023-05-19T15:04:56;101251.91;;;18.90;42.35
4392;BME280;2210;51.938;8.488;2023-05-19T15:08:59;101255.25;;;18.97;41.63
4392;BME280;2210;51.938;8.488;2023-05-19T15:12:59;101242.41;;;18.96;40.63
4392;BME280;2210;51.938;8.488;2023-05-19T15:17:03;101236.56;;;19.23;41.65
4392;BME280;2210;51.938;8.488;2023-05-19T15:21:04;101222.88;;;19.32;40.69
4392;BME280;2210;51.938;8.488;2023-05-19T15:25:04;101245.25;;;19.52;39.48
4392;BME280;2210;51.938;8.488;2023-05-19T15:29:11;101230.66;;;18.89;39.82
4392;BME280;2210;51.938;8.488;2023-05-19T15:33:11;101243.59;;;18.42;40.89
4392;BME280;2210;51.938;8.488;2023-05-19T15:37:11;101240.47;;;18.28;43.27
4392;BME280;2210;51.938;8.488;2023-05-19T15:41:18;101234.03;;;18.22;40.97
4392;BME280;2210;51.938;8.488;2023-05-19T15:45:24;101230.81;;;18.56;41.74
4392;BME280;2210;51.938;8.488;2023-05-19T15:49:27;101220.28;;;18.79;41.95
4392;BME280;2210;51.938;8.488;2023-05-19T15:53:31;101217.81;;;18.93;40.90
4392;BME280;2210;51.938;8.488;2023-05-19T15:57:31;101226.16;;;18.87;41.92
4392;BME280;2210;51.938;8.488;2023-05-19T16:01:31;101217.66;;;18.46;42.36
4392;BME280;2210;51.938;8.488;2023-05-19T16:05:32;101209.78;;;18.33;42.29
4392;BME280;2210;51.938;8.488;2023-05-19T16:09:32;101200.91;;;18.51;42.58
4392;BME280;2210;51.938;8.488;2023-05-19T16:13:32;101214.06;;;18.66;41.75
4392;BME280;2210;51.938;8.488;2023-05-19T16:17:33;101216.59;;;18.63;43.09
4392;BME280;2210;51.938;8.488;2023-05-19T16:21:33;101202.56;;;18.42;42.15
4392;BME280;2210;51.938;8.488;2023-05-19T16:25:34;101201.44;;;18.43;41.97
4392;BME280;2210;51.938;8.488;2023-05-19T16:29:34;101199.50;;;18.54;42.95
4392;BME280;2210;51.938;8.488;2023-05-19T16:33:34;101195.34;;;18.57;42.23
4392;BME280;2210;51.938;8.488;2023-05-19T16:37:34;101196.75;;;18.64;42.08
4392;BME280;2210;51.938;8.488;2023-05-19T16:41:36;101207.97;;;18.75;43.29
4392;BME280;2210;51.938;8.488;2023-05-19T16:45:36;101197.59;;;18.54;42.64
4392;BME280;2210;51.938;8.488;2023-05-19T16:49:40;101202.25;;;18.33;43.40
4392;BME280;2210;51.938;8.488;2023-05-19T16:53:40;101204.69;;;18.14;43.93
4392;BME280;2210;51.938;8.488;2023-05-19T16:57:40;101196.88;;;18.16;46.32
4392;BME280;2210;51.938;8.488;2023-05-19T17:01:43;101196.91;;;18.27;44.60
4392;BME280;2210;51.938;8.488;2023-05-19T17:05:44;101204.25;;;18.48;43.78
4392;BME280;2210;51.938;8.488;2023-05-19T17:09:44;101196.72;;;18.49;43.34
4392;BME280;2210;51.938;8.488;2023-05-19T17:13:50;101202.00;;;18.45;43.53
4392;BME280;2210;51.938;8.488;2023-05-19T17:17:51;101201.91;;;18.19;42.86
4392;BME280;2210;51.938;8.488;2023-05-19T17:21:51;101209.28;;;17.93;43.74
4392;BME280;2210;51.938;8.488;2023-05-19T17:25:54;101199.44;;;17.80;44.21
4392;BME280;2210;51.938;8.488;2023-05-19T17:29:55;101198.84;;;17.73;45.00
4392;BME280;2210;51.938;8.488;2023-05-19T17:33:55;101202.19;;;17.75;44.80
4392;BME280;2210;51.938;8.488;2023-05-19T17:37:55;101195.31;;;17.88;44.96
4392;BME280;2210;51.938;8.488;2023-05-19T17:41:56;101207.38;;;17.94;45.85
4392;BME280;2210;51.938;8.488;2023-05-19T17:45:57;101202.66;;;17.99;44.39
4392;BME280;2210;51.938;8.488;2023-05-19T17:49:57;101204.78;;;17.87;44.46
4392;BME280;2210;51.938;8.488;2023-05-19T17:53:58;101207.50;;;17.72;44.92
4392;BME280;2210;51.938;8.488;2023-05-19T17:58:01;101203.75;;;17.56;46.01
4392;BME280;2210;51.938;8.488;2023-05-19T18:02:02;101218.47;;;17.46;46.52
4392;BME280;2210;51.938;8.488;2023-05-19T18:06:02;101218.16;;;17.42;47.13
4392;BME280;2210;51.938;8.488;2023-05-19T18:10:03;101210.31;;;17.39;47.35
4392;BME280;2210;51.938;8.488;2023-05-19T18:14:04;101219.72;;;17.33;47.13
4392;BME280;2210;51.938;8.488;2023-05-19T18:18:04;101210.53;;;17.32;47.59
4392;BME280;2210;51.938;8.488;2023-05-19T18:22:06;101221.69;;;17.32;47.63
4392;BME280;2210;51.938;8.488;2023-05-19T18:26:12;101219.19;;;17.31;48.10
4392;BME280;2210;51.938;8.488;2023-05-19T18:30:12;101234.22;;;17.30;48.51
4392;BME280;2210;51.938;8.488;2023-05-19T18:34:13;101233.66;;;17.33;47.08
4392;BME280;2210;51.938;8.488;2023-05-19T18:38:13;101231.47;;;17.35;48.10
4392;BME280;2210;51.938;8.488;2023-05-19T18:42:13;101233.13;;;17.31;48.06
4392;BME280;2210;51.938;8.488;2023-05-19T18:46:15;101233.63;;;17.28;48.25
4392;BME280;2210;51.938;8.488;2023-05-19T18:50:15;101231.06;;;17.21;48.44
4392;BME280;2210;51.938;8.488;2023-05-19T18:54:16;101238.59;;;17.21;48.49
4392;BME280;2210;51.938;8.488;2023-05-19T18:58:17;101238.53;;;17.15;48.66
4392;BME280;2210;51.938;8.488;2023-05-19T19:02:17;101245.75;;;17.11;48.68
4392;BME280;2210;51.938;8.488;2023-05-19T19:06:17;101246.53;;;17.07;49.18
4392;BME280;2210;51.938;8.488;2023-05-19T19:10:19;101252.06;;;17.01;49.55
4392;BME280;2210;51.938;8.488;2023-05-19T19:14:23;101240.28;;;16.94;49.86
4392;BME280;2210;51.938;8.488;2023-05-19T19:18:23;101253.81;;;16.85;50.29
4392;BME280;2210;51.938;8.488;2023-05-19T19:22:28;101262.63;;;16.77;51.35
4392;BME280;2210;51.938;8.488;2023-05-19T19:26:34;101263.03;;;16.64;51.40
4392;BME280;2210;51.938;8.488;2023-05-19T19:30:34;101270.53;;;16.63;51.38
4392;BME280;2210;51.938;8.488;2023-05-19T19:34:34;101268.72;;;16.52;51.65
4392;BME280;2210;51.938;8.488;2023-05-19T19:38:38;101272.28;;;16.47;51.73
4392;BME280;2210;51.938;8.488;2023-05-19T19:42:51;101276.88;;;16.37;52.62
4392;BME280;2210;51.938;8.488;2023-05-19T19:46:51;101284.31;;;16.31;53.99
4392;BME280;2210;51.938;8.488;2023-05-19T19:50:53;101279.28;;;16.28;53.38
4392;BME280;2210;51.938;8.488;2023-05-19T19:54:56;101274.91;;;16.15;53.34
4392;BME280;2210;51.938;8.488;2023-05-19T19:59:03;101283.38;;;16.03;53.75
4392;BME280;2210;51.938;8.488;2023-05-19T20:03:03;101277.88;;;16.08;54.08
4392;BME280;2210;51.938;8.488;2023-05-19T20:07:05;101282.34;;;16.09;54.16
4392;BME280;2210;51.938;8.488;2023-05-19T20:11:08;101285.50;;;15.96;54.13
4392;BME280;2210;51.938;8.488;2023-05-19T20:15:09;101287.28;;;16.02;54.81
4392;BME280;2210;51.938;8.488;2023-05-19T20:19:16;101294.34;;;15.93;55.49
4392;BME280;2210;51.938;8.488;2023-05-19T20:23:22;101294.19;;;15.82;55.79
4392;BME280;2210;51.938;8.488;2023-05-19T20:27:25;101296.94;;;15.65;56.32
4392;BME280;2210;51.938;8.488;2023-05-19T20:31:32;101304.84;;;15.57;56.36
4392;BME280;2210;51.938;8.488;2023-05-19T20:35:32;101307.47;;;15.46;57.83
4392;BME280;2210;51.938;8.488;2023-05-19T20:39:32;101301.91;;;15.46;58.25
4392;BME280;2210;51.938;8.488;2023-05-19T20:43:33;101293.47;;;15.41;57.66
4392;BME280;2210;51.938;8.488;2023-05-19T20:47:42;101292.97;;;15.44;57.82
4392;BME280;2210;51.938;8.488;2023-05-19T20:51:43;101292.81;;;15.51;56.82
4392;BME280;2210;51.938;8.488;2023-05-19T20:55:44;101294.91;;;15.44;56.57
4392;BME280;2210;51.938;8.488;2023-05-19T20:59:48;101291.94;;;15.33;57.92
4392;BME280;2210;51.938;8.488;2023-05-19T21:03:48;101300.09;;;15.23;58.62
4392;BME280;2210;51.938;8.488;2023-05-19T21:07:48;101295.28;;;15.18;58.55
4392;BME280;2210;51.938;8.488;2023-05-19T21:11:49;101307.16;;;15.14;59.42
4392;BME280;2210;51.938;8.488;2023-05-19T21:15:52;101299.56;;;15.09;59.79
4392;BME280;2210;51.938;8.488;2023-05-19T21:19:52;101303.34;;;15.03;58.15
4392;BME280;2210;51.938;8.488;2023-05-19T21:23:56;101311.56;;;14.98;57.96
4392;BME280;2210;51.938;8.488;2023-05-19T21:28:03;101305.88;;;15.05;57.44
4392;BME280;2210;51.938;8.488;2023-05-19T21:32:03;101305.63;;;15.06;58.52
4392;BME280;2210;51.938;8.488;2023-05-19T21:36:04;101316.53;;;14.96;58.35
4392;BME280;2210;51.938;8.488;2023-05-19T21:40:05;101308.97;;;14.79;58.72
4392;BME280;2210;51.938;8.488;2023-05-19T21:44:06;101311.41;;;14.76;59.62
4392;BME280;2210;51.938;8.488;2023-05-19T21:48:10;101310.16;;;14.83;59.12
4392;BME280;2210;51.938;8.488;2023-05-19T21:52:10;101311.34;;;14.88;59.57
4392;BME280;2210;51.938;8.488;2023-05-19T21:56:10;101305.84;;;14.76;60.00
4392;BME280;2210;51.938;8.488;2023-05-19T22:00:11;101302.72;;;14.72;59.51
4392;BME280;2210;51.938;8.488;2023-05-19T22:04:12;101306.47;;;14.66;59.30
4392;BME280;2210;51.938;8.488;2023-05-19T22:08:13;101299.59;;;14.69;58.70
4392;BME280;2210;51.938;8.488;2023-05-19T22:12:13;101301.53;;;14.68;58.90